createdAt,value
2023-04-15T00:01:11.983Z,18.92
2023-04-15T00:03:39.180Z,17.27
2023-04-15T00:06:06.175Z,15.40
2023-04-15T00:08:33.309Z,13.98
2023-04-15T00:11:05.752Z,13.55
2023-04-15T00:13:36.087Z,12.13
2023-04-15T00:16:02.778Z,11.10
2023-04-15T00:18:30.082Z,10.07
2023-04-15T00:21:00.299Z,9.60
2023-04-15T00:23:27.760Z,8.90
2023-04-15T00:25:54.915Z,9.07
2023-04-15T00:28:21.679Z,8.27
2023-04-15T00:30:51.120Z,7.70
2023-04-15T00:33:18.395Z,7.28
2023-04-15T00:35:45.345Z,6.85
2023-04-15T00:38:13.302Z,7.38
2023-04-15T00:40:42.263Z,6.65
2023-04-15T00:43:08.936Z,5.82
2023-04-15T00:45:35.662Z,5.72
2023-04-15T00:48:02.537Z,5.85
2023-04-15T00:50:31.046Z,5.45
2023-04-15T00:53:04.859Z,5.15
2023-04-15T00:55:31.714Z,5.43
2023-04-15T00:57:58.513Z,4.90
2023-04-15T01:00:25.250Z,5.25
2023-04-15T01:02:53.222Z,5.00
2023-04-15T01:05:20.185Z,4.57
2023-04-15T01:07:48.255Z,4.22
2023-04-15T01:10:15.077Z,4.53
2023-04-15T01:12:43.372Z,4.40
2023-04-15T01:15:11.190Z,4.00
2023-04-15T01:17:38.326Z,3.65
2023-04-15T01:20:10.151Z,3.72
2023-04-15T01:22:38.421Z,3.90
2023-04-15T01:25:18.265Z,3.70
2023-04-15T01:27:45.448Z,3.88
2023-04-15T01:30:12.300Z,3.92
2023-04-15T01:32:39.231Z,3.80
2023-04-15T01:35:06.391Z,3.45
2023-04-15T01:37:33.297Z,3.55
2023-04-15T01:39:59.907Z,3.30
2023-04-15T01:42:27.775Z,3.05
2023-04-15T01:44:56.048Z,3.45
2023-04-15T01:47:22.812Z,2.85
2023-04-15T01:49:49.511Z,3.00
2023-04-15T01:52:16.496Z,2.78
2023-04-15T01:54:43.363Z,2.65
2023-04-15T01:57:12.223Z,2.80
2023-04-15T01:59:38.953Z,2.42
2023-04-15T02:02:05.763Z,2.70
2023-04-15T02:04:32.701Z,2.75
2023-04-15T02:07:00.827Z,2.90
2023-04-15T02:09:27.934Z,2.47
2023-04-15T02:11:54.714Z,2.45
2023-04-15T02:14:21.644Z,2.67
2023-04-15T02:16:48.494Z,2.47
2023-04-15T02:19:16.218Z,2.63
2023-04-15T02:21:42.956Z,2.47
2023-04-15T02:24:11.612Z,2.30
2023-04-15T02:26:43.996Z,2.22
2023-04-15T02:29:10.956Z,2.20
2023-04-15T02:31:42.269Z,2.53
2023-04-15T02:34:09.163Z,2.25
2023-04-15T02:36:36.335Z,2.35
2023-04-15T02:39:15.548Z,2.20
2023-04-15T02:41:43.957Z,2.20
2023-04-15T02:44:13.063Z,2.10
2023-04-15T02:46:41.340Z,2.10
2023-04-15T02:49:08.630Z,1.90
2023-04-15T02:51:36.268Z,2.03
2023-04-15T02:54:02.936Z,1.80
2023-04-15T02:56:30.905Z,1.80
2023-04-15T02:58:58.452Z,2.08
2023-04-15T03:01:26.192Z,1.92
2023-04-15T03:03:56.106Z,2.25
2023-04-15T03:06:24.725Z,2.00
2023-04-15T03:08:51.601Z,1.90
2023-04-15T03:11:19.419Z,2.00
2023-04-15T03:13:46.229Z,1.90
2023-04-15T03:16:25.869Z,1.67
2023-04-15T03:18:53.454Z,1.65
2023-04-15T03:21:21.634Z,1.73
2023-04-15T03:23:49.225Z,1.80
2023-04-15T03:26:31.703Z,1.60
2023-04-15T03:29:02.222Z,1.80
2023-04-15T03:31:29.257Z,1.70
2023-04-15T03:33:56.215Z,1.50
2023-04-15T03:36:23.724Z,1.65
2023-04-15T03:38:50.515Z,1.58
2023-04-15T03:41:17.492Z,1.60
2023-04-15T03:43:44.188Z,1.52
2023-04-15T03:46:11.186Z,1.58
2023-04-15T03:48:38.021Z,1.60
2023-04-15T03:51:04.678Z,1.50
2023-04-15T03:53:31.417Z,1.42
2023-04-15T03:55:58.165Z,1.50
2023-04-15T03:58:24.877Z,1.50
2023-04-15T04:00:51.522Z,1.52
2023-04-15T04:03:18.442Z,1.40
2023-04-15T04:05:45.518Z,1.58
2023-04-15T04:08:14.009Z,1.40
2023-04-15T04:10:40.805Z,1.55
2023-04-15T04:13:07.465Z,1.70
2023-04-15T04:15:34.328Z,1.50
2023-04-15T04:18:01.466Z,1.60
2023-04-15T04:20:28.191Z,1.50
2023-04-15T04:22:54.903Z,1.50
2023-04-15T04:25:21.568Z,1.67
2023-04-15T04:27:48.266Z,1.70
2023-04-15T04:30:14.974Z,1.50
2023-04-15T04:32:41.858Z,1.50
2023-04-15T04:35:09.014Z,1.60
2023-04-15T04:37:35.764Z,1.40
2023-04-15T04:40:02.470Z,1.67
2023-04-15T04:42:32.116Z,1.65
2023-04-15T04:44:58.869Z,1.48
2023-04-15T04:47:25.507Z,1.60
2023-04-15T04:49:53.889Z,1.50
2023-04-15T04:52:20.582Z,1.50
2023-04-15T04:54:50.571Z,1.40
2023-04-15T04:57:17.209Z,1.40
2023-04-15T04:59:43.843Z,1.30
2023-04-15T05:02:11.970Z,1.30
2023-04-15T05:04:38.714Z,1.38
2023-04-15T05:07:05.382Z,1.20
2023-04-15T05:09:33.100Z,1.10
2023-04-15T05:11:59.879Z,1.10
2023-04-15T05:14:33.348Z,1.20
2023-04-15T05:17:00.159Z,1.33
2023-04-15T05:19:27.002Z,1.20
2023-04-15T05:21:53.783Z,1.30
2023-04-15T05:24:23.367Z,1.20
2023-04-15T05:26:50.107Z,1.17
2023-04-15T05:29:17.059Z,1.17
2023-04-15T05:31:46.766Z,1.20
2023-04-15T05:34:17.582Z,1.10
2023-04-15T05:36:47.348Z,1.35
2023-04-15T05:39:16.939Z,1.17
2023-04-15T05:41:43.772Z,1.00
2023-04-15T05:44:13.545Z,1.20
2023-04-15T05:46:40.421Z,1.10
2023-04-15T05:49:07.140Z,0.90
2023-04-15T05:51:33.844Z,1.00
2023-04-15T05:54:06.105Z,1.00
2023-04-15T05:56:37.907Z,0.90
2023-04-15T05:59:07.613Z,1.08
2023-04-15T06:01:34.932Z,0.90
2023-04-15T06:04:01.989Z,1.00
2023-04-15T06:06:29.991Z,1.10
2023-04-15T06:08:57.455Z,0.90
2023-04-15T06:11:27.509Z,1.10
2023-04-15T06:13:57.600Z,1.10
2023-04-15T06:16:24.299Z,1.08
2023-04-15T06:18:50.932Z,1.10
2023-04-15T06:21:20.330Z,0.93
2023-04-15T06:23:47.023Z,1.00
2023-04-15T06:26:13.755Z,1.00
2023-04-15T06:28:40.443Z,1.00
2023-04-15T06:31:07.227Z,0.90
2023-04-15T06:33:33.881Z,0.90
2023-04-15T06:36:02.836Z,1.15
2023-04-15T06:38:29.662Z,1.10
2023-04-15T06:40:56.444Z,0.90
2023-04-15T06:43:23.084Z,0.98
2023-04-15T06:45:51.278Z,1.02
2023-04-15T06:48:18.027Z,1.02
2023-04-15T06:50:44.703Z,1.02
2023-04-15T06:53:11.437Z,1.00
2023-04-15T06:55:38.165Z,0.90
2023-04-15T06:58:05.899Z,0.90
2023-04-15T07:00:38.448Z,0.95
2023-04-15T07:03:05.431Z,0.82
2023-04-15T07:05:32.497Z,0.82
2023-04-15T07:07:59.191Z,0.90
2023-04-15T07:10:26.111Z,0.70
2023-04-15T07:12:54.998Z,0.80
2023-04-15T07:15:22.262Z,0.80
2023-04-15T07:17:49.124Z,0.93
2023-04-15T07:20:16.000Z,0.80
2023-04-15T07:22:42.657Z,0.80
2023-04-15T07:25:11.847Z,0.77
2023-04-15T07:27:38.599Z,0.70
2023-04-15T07:30:08.840Z,0.82
2023-04-15T07:32:35.529Z,0.80
2023-04-15T07:35:04.850Z,0.80
2023-04-15T07:37:34.418Z,0.80
2023-04-15T07:40:01.073Z,0.70
2023-04-15T07:42:27.782Z,0.90
2023-04-15T07:44:54.686Z,0.82
2023-04-15T07:47:22.068Z,0.88
2023-04-15T07:49:49.290Z,0.80
2023-04-15T07:52:15.975Z,0.80
2023-04-15T07:54:42.732Z,0.75
2023-04-15T07:57:09.457Z,0.88
2023-04-15T07:59:36.937Z,0.82
2023-04-15T08:02:04.292Z,0.65
2023-04-15T08:04:31.395Z,1.00
2023-04-15T08:06:58.539Z,0.80
2023-04-15T08:09:25.247Z,0.75
2023-04-15T08:11:51.981Z,0.85
2023-04-15T08:14:18.794Z,0.70
2023-04-15T08:16:45.481Z,1.02
2023-04-15T08:19:12.149Z,1.00
2023-04-15T08:21:38.893Z,0.70
2023-04-15T08:24:06.905Z,0.77
2023-04-15T08:26:33.577Z,0.60
2023-04-15T08:29:00.516Z,0.80
2023-04-15T08:31:29.945Z,0.82
2023-04-15T08:33:57.716Z,0.90
2023-04-15T08:36:24.464Z,0.70
2023-04-15T08:38:51.258Z,0.70
2023-04-15T08:41:25.756Z,0.70
2023-04-15T08:44:12.876Z,0.70
2023-04-15T08:46:39.981Z,0.75
2023-04-15T08:49:13.221Z,0.73
2023-04-15T08:51:43.073Z,0.63
2023-04-15T08:54:09.903Z,0.70
2023-04-15T08:56:37.272Z,0.80
2023-04-15T08:59:04.550Z,0.70
2023-04-15T09:01:32.377Z,0.60
2023-04-15T09:03:59.916Z,0.80
2023-04-15T09:06:27.113Z,0.55
2023-04-15T09:08:53.830Z,0.57
2023-04-15T09:11:21.947Z,0.60
2023-04-15T09:13:49.550Z,0.70
2023-04-15T09:16:16.298Z,0.60
2023-04-15T09:18:43.024Z,0.70
2023-04-15T09:21:11.575Z,0.70
2023-04-15T09:23:40.081Z,0.60
2023-04-15T09:26:07.164Z,0.70
2023-04-15T09:28:35.919Z,0.80
2023-04-15T09:31:02.844Z,0.70
2023-04-15T09:33:30.338Z,0.70
2023-04-15T09:36:01.701Z,0.65
2023-04-15T09:38:28.648Z,0.60
2023-04-15T09:40:56.086Z,0.70
2023-04-15T09:43:23.140Z,0.63
2023-04-15T09:45:51.936Z,0.60
2023-04-15T09:48:28.919Z,0.50
2023-04-15T09:50:58.704Z,0.55
2023-04-15T09:53:26.121Z,0.70
2023-04-15T09:55:55.460Z,0.57
2023-04-15T09:58:23.547Z,0.60
2023-04-15T10:00:51.936Z,0.70
2023-04-15T10:03:26.077Z,0.55
2023-04-15T10:05:57.181Z,0.70
2023-04-15T10:08:25.346Z,0.65
2023-04-15T10:10:52.505Z,0.60
2023-04-15T10:13:28.641Z,0.60
2023-04-15T10:16:06.721Z,0.60
2023-04-15T10:18:36.523Z,0.55
2023-04-15T10:21:03.690Z,0.60
2023-04-15T10:23:31.123Z,0.50
2023-04-15T10:25:58.640Z,0.60
2023-04-15T10:28:26.548Z,0.65
2023-04-15T10:30:53.761Z,0.65
2023-04-15T10:33:23.530Z,0.60
2023-04-15T10:35:51.811Z,0.40
2023-04-15T10:38:57.141Z,0.60
2023-04-15T10:41:29.896Z,0.50
2023-04-15T10:44:05.024Z,0.60
2023-04-15T10:46:40.416Z,0.60
2023-04-15T10:49:25.957Z,0.60
2023-04-15T10:51:59.784Z,0.38
2023-04-15T10:54:26.387Z,0.50
2023-04-15T10:57:08.654Z,0.50
2023-04-15T10:59:58.794Z,0.40
2023-04-15T11:02:46.623Z,0.50
2023-04-15T11:05:17.125Z,0.50
2023-04-15T11:07:49.721Z,0.60
2023-04-15T11:10:20.884Z,0.50
2023-04-15T11:12:51.282Z,0.40
2023-04-15T11:15:31.075Z,0.40
2023-04-15T11:17:59.024Z,0.32
2023-04-15T11:20:26.273Z,0.50
2023-04-15T11:23:14.551Z,0.50
2023-04-15T11:25:42.867Z,0.50
2023-04-15T11:28:09.738Z,0.50
2023-04-15T11:30:37.694Z,0.50
2023-04-15T11:33:06.355Z,0.50
2023-04-15T11:35:33.598Z,0.50
2023-04-15T11:38:04.146Z,0.50
2023-04-15T11:40:33.262Z,0.52
2023-04-15T11:43:10.727Z,0.40
2023-04-15T11:45:38.852Z,0.40
2023-04-15T11:48:09.982Z,0.50
2023-04-15T11:50:37.558Z,0.50
2023-04-15T11:53:08.397Z,0.47
2023-04-15T11:55:49.318Z,0.40
2023-04-15T11:58:18.856Z,0.40
2023-04-15T12:00:57.546Z,0.50
2023-04-15T12:03:29.982Z,0.40
2023-04-15T12:06:35.025Z,0.38
2023-04-15T12:09:04.774Z,0.43
2023-04-15T12:11:41.652Z,0.50
2023-04-15T12:14:20.184Z,0.30
2023-04-15T12:16:52.663Z,0.40
2023-04-15T12:19:28.763Z,0.40
2023-04-15T12:22:17.114Z,0.40
2023-04-15T12:24:47.856Z,0.50
2023-04-15T12:27:16.484Z,0.45
2023-04-15T12:29:43.955Z,0.30
2023-04-15T12:32:12.809Z,0.40
2023-04-15T12:34:40.458Z,0.40
2023-04-15T12:37:09.605Z,0.38
2023-04-15T12:39:40.667Z,0.30
2023-04-15T12:42:07.741Z,0.40
2023-04-15T12:44:35.748Z,0.30
2023-04-15T12:47:03.261Z,0.40
2023-04-15T12:49:30.951Z,0.38
2023-04-15T12:52:01.878Z,0.40
2023-04-15T12:54:30.013Z,0.30
2023-04-15T12:56:57.140Z,0.35
2023-04-15T12:59:26.804Z,0.40
2023-04-15T13:01:54.138Z,0.30
2023-04-15T13:04:21.339Z,0.30
2023-04-15T13:06:48.172Z,0.35
2023-04-15T13:09:15.817Z,0.40
2023-04-15T13:11:43.236Z,0.40
2023-04-15T13:14:11.757Z,0.40
2023-04-15T13:16:38.955Z,0.30
2023-04-15T13:19:05.629Z,0.40
2023-04-15T13:21:35.714Z,0.30
2023-04-15T13:24:03.619Z,0.40
2023-04-15T13:26:31.376Z,0.35
2023-04-15T13:28:58.031Z,0.45
2023-04-15T13:31:24.706Z,0.40
2023-04-15T13:33:51.422Z,0.30
2023-04-15T13:36:18.042Z,0.28
2023-04-15T13:38:44.714Z,0.50
2023-04-15T13:41:11.369Z,0.47
2023-04-15T13:43:37.973Z,0.50
2023-04-15T13:46:04.792Z,0.40
2023-04-15T13:48:31.629Z,0.50
2023-04-15T13:50:58.329Z,0.40
2023-04-15T13:53:27.438Z,0.40
2023-04-15T13:56:09.226Z,0.40
2023-04-15T13:58:36.808Z,0.50
2023-04-15T14:01:05.728Z,0.40
2023-04-15T14:03:33.738Z,0.30
2023-04-15T14:06:00.769Z,0.50
2023-04-15T14:08:27.494Z,0.40
2023-04-15T14:10:54.193Z,0.40
2023-04-15T14:13:20.794Z,0.30
2023-04-15T14:15:47.716Z,0.40
2023-04-15T14:18:14.627Z,0.32
2023-04-15T14:20:41.305Z,0.32
2023-04-15T14:23:08.037Z,0.30
2023-04-15T14:25:34.671Z,0.32
2023-04-15T14:28:02.387Z,0.40
2023-04-15T14:30:29.139Z,0.40
2023-04-15T14:32:55.988Z,0.30
2023-04-15T14:35:24.708Z,0.40
2023-04-15T14:37:51.572Z,0.40
2023-04-15T14:40:18.355Z,0.35
2023-04-15T14:42:45.171Z,0.40
2023-04-15T14:45:11.868Z,0.38
2023-04-15T14:47:38.590Z,0.30
2023-04-15T14:50:05.924Z,0.30
2023-04-15T14:52:39.050Z,0.30
2023-04-15T14:55:12.670Z,0.30
2023-04-15T14:57:41.247Z,0.40
2023-04-15T15:00:09.975Z,0.40
2023-04-15T15:02:40.294Z,0.30
2023-04-15T15:05:08.647Z,0.30
2023-04-15T15:07:37.180Z,0.30
2023-04-15T15:10:05.078Z,0.40
2023-04-15T15:12:32.990Z,0.30
2023-04-15T15:15:00.458Z,0.30
2023-04-15T15:17:28.211Z,0.40
2023-04-15T15:19:54.975Z,0.30
2023-04-15T15:22:21.666Z,0.40
2023-04-15T15:24:48.465Z,0.30
2023-04-15T15:27:15.116Z,0.40
2023-04-15T15:29:41.811Z,0.30
2023-04-15T15:32:08.536Z,0.30
2023-04-15T15:34:35.219Z,0.50
2023-04-15T15:37:02.111Z,0.38
2023-04-15T15:39:28.880Z,0.40
2023-04-15T15:41:55.516Z,0.35
2023-04-15T15:44:22.198Z,0.40
2023-04-15T15:46:50.430Z,0.30
2023-04-15T15:49:17.182Z,0.30
2023-04-15T15:51:43.848Z,0.30
2023-04-15T15:54:10.470Z,0.40
2023-04-15T15:56:38.552Z,0.30
2023-04-15T15:59:05.715Z,0.30
2023-04-15T16:01:32.562Z,0.38
2023-04-15T16:03:59.548Z,0.30
2023-04-15T16:06:26.653Z,0.30
2023-04-15T16:08:53.314Z,0.40
2023-04-15T16:11:20.001Z,0.30
2023-04-15T16:13:46.896Z,0.30
2023-04-15T16:16:13.554Z,0.30
2023-04-15T16:18:40.573Z,0.30
2023-04-15T16:21:07.319Z,0.30
2023-04-15T16:23:34.036Z,0.40
2023-04-15T16:26:00.935Z,0.40
2023-04-15T16:28:27.664Z,0.40
2023-04-15T16:30:55.050Z,0.30
2023-04-15T16:33:21.787Z,0.50
2023-04-15T16:35:48.439Z,0.40
2023-04-15T16:38:15.637Z,0.40
2023-04-15T16:40:42.534Z,0.40
2023-04-15T16:43:11.283Z,0.30
2023-04-15T16:45:38.571Z,0.38
2023-04-15T16:48:05.846Z,0.30
2023-04-15T16:50:32.566Z,0.32
2023-04-15T16:52:59.321Z,0.40
2023-04-15T16:55:26.180Z,0.35
2023-04-15T16:58:02.045Z,0.50
2023-04-15T17:00:31.808Z,0.50
2023-04-15T17:02:59.443Z,0.38
2023-04-15T17:05:29.445Z,0.52
2023-04-15T17:07:56.172Z,0.60
2023-04-15T17:10:23.368Z,0.70
2023-04-15T17:12:52.163Z,0.60
2023-04-15T17:15:19.566Z,0.90
2023-04-15T17:17:46.338Z,0.75
2023-04-15T17:20:13.052Z,0.90
2023-04-15T17:22:39.900Z,0.80
2023-04-15T17:25:06.968Z,0.90
2023-04-15T17:27:33.700Z,0.88
2023-04-15T17:30:00.428Z,1.05
2023-04-15T17:32:31.832Z,1.08
2023-04-15T17:34:58.749Z,1.10
2023-04-15T17:37:25.653Z,1.10
2023-04-15T17:39:52.924Z,0.80
2023-04-15T17:42:19.654Z,1.00
2023-04-15T17:44:46.621Z,1.08
2023-04-15T17:47:13.326Z,1.05
2023-04-15T17:49:39.988Z,0.90
2023-04-15T17:52:06.705Z,0.88
2023-04-15T17:54:35.701Z,0.80
2023-04-15T17:57:03.288Z,0.90
2023-04-15T17:59:29.988Z,0.80
2023-04-15T18:01:58.516Z,0.82
2023-04-15T18:04:26.909Z,0.90
2023-04-15T18:06:53.957Z,0.93
2023-04-15T18:09:20.965Z,1.00
2023-04-15T18:11:48.970Z,1.00
2023-04-15T18:14:30.668Z,0.90
2023-04-15T18:17:00.041Z,0.75
2023-04-15T18:19:26.677Z,1.00
2023-04-15T18:21:53.375Z,0.98
2023-04-15T18:24:20.117Z,0.80
2023-04-15T18:26:48.875Z,0.90
2023-04-15T18:29:16.152Z,0.90
2023-04-15T18:31:42.847Z,0.80
2023-04-15T18:34:09.632Z,0.85
2023-04-15T18:36:36.292Z,0.90
2023-04-15T18:39:03.308Z,0.70
2023-04-15T18:41:30.278Z,0.90
2023-04-15T18:43:57.017Z,0.75
2023-04-15T18:46:23.735Z,0.80
2023-04-15T18:48:50.449Z,0.90
2023-04-15T18:51:17.191Z,0.85
2023-04-15T18:53:43.818Z,0.85
2023-04-15T18:56:10.490Z,1.02
2023-04-15T18:59:26.107Z,0.90
2023-04-15T19:01:24.192Z,1.00
2023-04-15T19:03:51.050Z,1.17
2023-04-15T19:06:17.851Z,1.00
2023-04-15T19:08:44.474Z,0.90
2023-04-15T19:11:11.411Z,1.20
2023-04-15T19:13:38.043Z,1.05
2023-04-15T19:16:05.050Z,1.10
2023-04-15T19:18:31.793Z,1.10
2023-04-15T19:20:58.469Z,1.00
2023-04-15T19:23:25.235Z,0.60
2023-04-15T19:25:51.873Z,0.82
2023-04-15T19:28:18.523Z,1.10
2023-04-15T19:30:45.203Z,0.90
2023-04-15T19:33:12.384Z,1.20
2023-04-15T19:35:40.667Z,1.00
2023-04-15T19:38:07.349Z,1.30
2023-04-15T19:40:34.085Z,1.60
2023-04-15T19:43:00.803Z,1.60
2023-04-15T19:45:27.531Z,1.92
2023-04-15T19:47:54.664Z,2.35
2023-04-15T19:50:25.894Z,2.22
2023-04-15T19:52:53.326Z,2.22
2023-04-15T19:55:20.442Z,2.40
2023-04-15T19:57:47.105Z,2.75
2023-04-15T20:00:13.918Z,2.78
2023-04-15T20:02:40.965Z,2.70
2023-04-15T20:05:10.053Z,3.00
2023-04-15T20:07:36.804Z,2.53
2023-04-15T20:10:08.607Z,2.80
2023-04-15T20:12:51.230Z,3.00
2023-04-15T20:15:20.799Z,2.72
2023-04-15T20:17:47.650Z,2.50
2023-04-15T20:20:14.386Z,2.90
2023-04-15T20:22:41.446Z,2.58
2023-04-15T20:25:08.625Z,2.15
2023-04-15T20:27:35.505Z,2.42
2023-04-15T20:30:04.254Z,2.33
2023-04-15T20:32:35.243Z,2.47
2023-04-15T20:35:03.529Z,2.17
2023-04-15T20:37:31.023Z,2.00
2023-04-15T20:39:57.683Z,2.00
2023-04-15T20:42:24.363Z,2.28
2023-04-15T20:44:51.189Z,2.30
2023-04-15T20:47:18.214Z,2.20
2023-04-15T20:49:45.751Z,2.10
2023-04-15T20:52:12.509Z,2.50
2023-04-15T20:54:39.461Z,2.50
2023-04-15T20:57:06.089Z,2.50
2023-04-15T20:59:34.704Z,2.45
2023-04-15T21:02:02.166Z,2.40
2023-04-15T21:04:28.928Z,2.28
2023-04-15T21:06:55.600Z,2.30
2023-04-15T21:09:22.271Z,2.33
2023-04-15T21:14:18.916Z,2.25
2023-04-15T21:16:46.255Z,2.30
2023-04-15T21:19:12.997Z,2.20
2023-04-15T21:21:39.596Z,1.98
2023-04-15T21:24:09.692Z,2.30
2023-04-15T21:26:36.366Z,1.90
2023-04-15T21:29:03.483Z,2.33
2023-04-15T21:31:30.575Z,2.10
2023-04-15T21:33:57.431Z,2.13
2023-04-15T21:36:24.203Z,1.80
2023-04-15T21:38:50.960Z,2.00
2023-04-15T21:41:17.850Z,1.90
2023-04-15T21:43:44.767Z,1.88
2023-04-15T21:46:23.145Z,1.88
2023-04-15T21:48:55.301Z,1.80
2023-04-15T21:51:22.035Z,1.90
2023-04-15T21:53:48.735Z,1.70
2023-04-15T21:56:15.518Z,1.92
2023-04-15T21:58:42.976Z,1.98
2023-04-15T22:01:09.833Z,1.90
2023-04-15T22:03:36.918Z,1.90
2023-04-15T22:06:08.337Z,1.80
2023-04-15T22:08:44.608Z,1.70
2023-04-15T22:11:26.719Z,1.70
2023-04-15T22:13:57.375Z,1.65
2023-04-15T22:16:27.679Z,1.63
2023-04-15T22:18:57.363Z,1.60
2023-04-15T22:21:24.200Z,1.52
2023-04-15T22:23:51.461Z,1.60
2023-04-15T22:26:18.143Z,1.42
2023-04-15T22:28:45.602Z,1.70
2023-04-15T22:31:12.391Z,1.40
2023-04-15T22:33:39.107Z,1.40
2023-04-15T22:36:06.262Z,1.40
2023-04-15T22:38:33.198Z,1.58
2023-04-15T22:40:59.881Z,1.38
2023-04-15T22:43:27.491Z,1.58
2023-04-15T22:45:55.128Z,1.65
2023-04-15T22:48:22.140Z,1.52
2023-04-15T22:50:49.384Z,1.60
2023-04-15T22:53:17.271Z,1.77
2023-04-15T22:55:47.607Z,1.80
2023-04-15T22:58:15.495Z,1.90
2023-04-15T23:00:42.132Z,1.60
2023-04-15T23:03:09.028Z,2.05
2023-04-15T23:05:36.084Z,1.73
2023-04-15T23:08:03.210Z,1.73
2023-04-15T23:10:29.889Z,1.90
2023-04-15T23:12:56.733Z,1.65
2023-04-15T23:15:23.423Z,1.65
2023-04-15T23:17:50.215Z,1.77
2023-04-15T23:20:16.994Z,1.33
2023-04-15T23:22:43.694Z,1.55
2023-04-15T23:25:10.466Z,1.50
2023-04-15T23:27:37.190Z,1.50
2023-04-15T23:30:04.216Z,1.52
2023-04-15T23:32:30.911Z,1.52
2023-04-15T23:34:57.655Z,1.20
2023-04-15T23:37:24.341Z,1.35
2023-04-15T23:39:50.972Z,1.45
2023-04-15T23:42:20.570Z,1.38
2023-04-15T23:44:47.210Z,1.27
2023-04-15T23:47:13.852Z,1.48
2023-04-15T23:49:41.026Z,1.27
2023-04-15T23:52:08.038Z,1.40
2023-04-15T23:54:35.099Z,1.33
2023-04-15T23:57:01.845Z,1.48
2023-04-15T23:59:28.614Z,1.40
